WEATHER DATA

TODAY
Time Temp. Dewp. Hum. Bar.
00:05 -17.1 -18.7 86 985.1
00:15 -16.9 -18.5 86 985
00:25 -16.7 -18.2 87 985.1
00:35 -16.4 -17.9 87 985.1
00:45 -16.2 -17.7 87 985
00:55 -16 -17.5 87 985
01:05 -15.9 -17.4 87 985.2
01:15 -15.7 -17.2 87 985.4
01:25 -15.6 -17.2 86 985.4
01:36 -15.6 -17.2 86 985.4
01:46 -15.6 -17.2 86 985.4
01:55 -15.7 -17.3 86 985.5
02:05 -15.7 -17.4 85 985.6
02:16 -15.7 -17.4 85 985.6
02:26 -15.8 -17.5 85 985.6
02:36 -15.8 -17.5 85 985.6
02:46 -15.7 -17.3 86 985.7
02:56 -15.6 -17.2 86 985.8
03:06 -15.5 -17.1 86 985.7
03:16 -15.3 -16.9 86 985.8
03:27 -15.1 -16.6 87 985.9
03:36 -14.9 -16.4 87 986
03:46 -14.8 -16.3 87 986
03:57 -14.6 -16.1 87 986.1
04:07 -14.4 -15.9 87 986.1
04:17 -14.2 -15.7 87 986.3
04:26 -14.1 -15.6 87 986.4
04:37 -13.9 -15.4 87 986.4
04:47 -13.9 -15.4 87 986.5
04:57 -13.8 -15.3 87 986.7
05:07 -13.8 -15.3 87 986.7
05:17 -13.7 -15.2 87 986.7
05:27 -13.7 -15.2 87 986.8
05:37 -13.7 -15.2 87 986.8
05:48 -13.6 -15.1 87 986.9
05:58 -13.4 -14.9 87 986.9
06:07 -13.3 -14.7 88 987
06:18 -13.1 -14.5 88 987.1
06:28 -13 -14.4 88 987.1
06:38 -13 -14.5 87 987.1
06:48 -13 -14.5 87 987.2
06:58 -13 -14.5 87 987.3
07:08 -13 -14.5 87 987.4
07:18 -12.9 -14.4 87 987.5
07:28 -12.9 -14.4 87 987.6
07:38 -12.8 -14.3 87 987.7
07:49 -12.7 -14.2 87 987.8
07:58 -12.7 -14.2 87 987.9
08:08 -12.7 -14.2 87 988.1
08:19 -12.7 -14.2 87 988.1
08:29 -12.7 -14.4 86 988.2
08:39 -12.8 -14.5 86 988.3
08:49 -12.8 -14.5 86 988.4
08:59 -12.8 -14.5 86 988.5
09:09 -12.7 -14.2 87 988.6
09:19 -12.6 -14.1 87 988.6
09:29 -12.5 -14 87 988.7
09:39 -12.3 -13.8 87 988.8
09:49 -12.2 -13.7 87 989
09:59 -12.1 -13.6 87 989.1
10:10 -12 -13.5 87 989.2
10:19 -11.9 -13.4 87 989.4
10:29 -11.8 -13.3 87 989.6
10:40 -11.7 -13.2 87 989.7
10:50 -11.6 -13.1 87 989.7
11:00 -11.3 -12.8 87 989.9
11:10 -11 -12.4 88 989.9
11:20 -10.8 -12.2 88 990.1
11:29 -10.5 -11.9 88 990.2
11:40 -10.3 -11.7 88 990.3
11:51 -10.1 -11.5 88 990.4
12:00 -9.8 -11.2 88 990.6
12:10 -9.5 -10.8 89 990.7
12:20 -9.2 -10.5 89 990.8
12:31 -9.1 -10.5 88 990.8
12:41 -9.1 -10.5 88 990.8
12:50 -9 -10.4 88 991
13:01 -8.9 -10.3 88 991.1
13:11 -8.7 -10 89 991.2
13:21 -8.5 -9.9 88 991.3
13:31 -8.3 -9.6 89 991.5
13:41 -8.1 -9.6 88 991.6
13:51 -8 -9.5 88 991.7
14:01 -7.8 -9.3 88 991.8
14:12 -7.8 -9.3 88 992
14:22 -7.9 -9.5 87 992.1
14:31 -8 -9.6 87 992.2
14:41 -8.1 -9.7 87 992.4
14:52 -8.2 -9.8 87 992.5
15:02 -8.4 -10 87 992.7
15:12 -8.5 -10.1 87 992.9
15:22 -8.5 -10.1 87 993.1
15:32 -8.6 -10 88 993.2
15:42 -8.6 -10 88 993.4
15:52 -8.6 -10 88 993.6
16:03 -8.6 -10 88 993.7
16:12 -8.6 -10 88 993.7
16:22 -8.7 -10.1 88 993.8
16:33 -8.7 -10.1 88 993.9
16:43 -8.7 -10.1 88 994.1

DAY STATISTIC

2023-02-01
TEMPERATURE
AVERAGE
-12.2
HIGH
-7.8
14:01
LOW
-17.1
00:05
PRESSURE
AVERAGE
988.6
HIGH
994.1
16:43
LOW
985.0
00:15
DEWPOINT
AVERAGE
-13.7
HIGH
-9.3
14:01
LOW
-18.7
00:05
HUMIDITY
AVERAGE
87
HIGH
89
12:10
LOW
85
02:05
TEMPERATURE (°C)
LOW
-17.1
HIGH
-7.8
AVERAGE
-12.2
PRESSURE (hpa)
LOW
985.0
HIGH
994.1
AVERAGE
988.6
DEVICE